Wetterdaten: Freitag, 17.02.2012
Datum Zeit Temp. A. Feuchte A. Luftdruck Regen Wind Richtung Richtung Sonnenschein UV Solar Windben
17.02.2012 00:00 4,8 C 93 % 1020,8 hPa 0,0 mm 6,4 km/h (2 Bft) W-SW 247 0 min 0 UV-I 0 W/m 19,3 km/h (3 Bft)
17.02.2012 00:10 4,7 C 93 % 1020,7 hPa 0,0 mm 8,0 km/h (2 Bft) W 270 0 min 0 UV-I 0 W/m 19,3 km/h (3 Bft)
17.02.2012 00:20 4,8 C 93 % 1020,6 hPa 0,0 mm 8,0 km/h (2 Bft) W-SW 247 0 min 0 UV-I 0 W/m 20,9 km/h (4 Bft)
17.02.2012 00:30 4,8 C 93 % 1020,5 hPa 0,0 mm 6,4 km/h (2 Bft) W-SW 247 0 min 0 UV-I 0 W/m 17,7 km/h (3 Bft)
17.02.2012 00:40 4,8 C 93 % 1020,6 hPa 0,0 mm 6,4 km/h (2 Bft) W-SW 247 0 min 0 UV-I 0 W/m 17,7 km/h (3 Bft)
17.02.2012 00:50 4,7 C 93 % 1020,5 hPa 0,0 mm 8,0 km/h (2 Bft) W-SW 247 0 min 0 UV-I 0 W/m 22,5 km/h (4 Bft)
17.02.2012 01:00 4,7 C 93 % 1020,5 hPa 0,0 mm 8,0 km/h (2 Bft) W-SW 247 0 min 0 UV-I 0 W/m 19,3 km/h (3 Bft)
17.02.2012 01:10 4,7 C 93 % 1020,3 hPa 0,0 mm 8,0 km/h (2 Bft) W-SW 247 0 min 0 UV-I 0 W/m 19,3 km/h (3 Bft)
17.02.2012 01:20 4,7 C 93 % 1020,3 hPa 0,0 mm 6,4 km/h (2 Bft) W-SW 247 0 min 0 UV-I 0 W/m 17,7 km/h (3 Bft)
17.02.2012 01:30 4,7 C 93 % 1020,2 hPa 0,0 mm 8,0 km/h (2 Bft) SW 225 0 min 0 UV-I 0 W/m 22,5 km/h (4 Bft)
17.02.2012 01:40 4,7 C 93 % 1020,2 hPa 0,0 mm 6,4 km/h (2 Bft) W-SW 247 0 min 0 UV-I 0 W/m 17,7 km/h (3 Bft)
17.02.2012 01:50 4,7 C 93 % 1020,0 hPa 0,0 mm 8,0 km/h (2 Bft) W 270 0 min 0 UV-I 0 W/m 19,3 km/h (3 Bft)
17.02.2012 02:00 4,7 C 93 % 1019,9 hPa 0,0 mm 9,7 km/h (2 Bft) W-SW 247 0 min 0 UV-I 0 W/m 19,3 km/h (3 Bft)
17.02.2012 02:10 4,7 C 93 % 1019,7 hPa 0,0 mm 6,4 km/h (2 Bft) W 270 0 min 0 UV-I 0 W/m 17,7 km/h (3 Bft)
17.02.2012 02:20 4,7 C 93 % 1019,8 hPa 0,0 mm 6,4 km/h (2 Bft) W-SW 247 0 min 0 UV-I 0 W/m 17,7 km/h (3 Bft)
17.02.2012 02:30 4,7 C 93 % 1019,8 hPa 0,0 mm 8,0 km/h (2 Bft) W-SW 247 0 min 0 UV-I 0 W/m 19,3 km/h (3 Bft)
17.02.2012 02:40 4,7 C 93 % 1019,7 hPa 0,0 mm 8,0 km/h (2 Bft) W-SW 247 0 min 0 UV-I 0 W/m 20,9 km/h (4 Bft)
17.02.2012 02:50 4,7 C 93 % 1019,5 hPa 0,0 mm 8,0 km/h (2 Bft) W-SW 247 0 min 0 UV-I 0 W/m 19,3 km/h (3 Bft)
17.02.2012 03:00 4,7 C 93 % 1019,5 hPa 0,3 mm 6,4 km/h (2 Bft) SW 225 0 min 0 UV-I 0 W/m 22,5 km/h (4 Bft)
17.02.2012 03:10 4,7 C 93 % 1019,5 hPa 0,0 mm 8,0 km/h (2 Bft) W-SW 247 0 min 0 UV-I 0 W/m 20,9 km/h (4 Bft)
17.02.2012 03:20 4,7 C 93 % 1019,4 hPa 0,0 mm 6,4 km/h (2 Bft) SW 225 0 min 0 UV-I 0 W/m 19,3 km/h (3 Bft)
17.02.2012 03:30 4,6 C 93 % 1019,4 hPa 0,0 mm 8,0 km/h (2 Bft) W-SW 247 0 min 0 UV-I 0 W/m 20,9 km/h (4 Bft)
17.02.2012 03:40 4,6 C 93 % 1019,4 hPa 0,0 mm 6,4 km/h (2 Bft) W-SW 247 0 min 0 UV-I 0 W/m 17,7 km/h (3 Bft)
17.02.2012 03:50 4,6 C 93 % 1019,3 hPa 0,0 mm 8,0 km/h (2 Bft) W 270 0 min 0 UV-I 0 W/m 20,9 km/h (4 Bft)
17.02.2012 04:00 4,6 C 93 % 1019,2 hPa 0,0 mm 6,4 km/h (2 Bft) W-SW 247 0 min 0 UV-I 0 W/m 20,9 km/h (4 Bft)
17.02.2012 04:10 4,6 C 93 % 1019,1 hPa 0,3 mm 6,4 km/h (2 Bft) SW 225 0 min 0 UV-I 0 W/m 16,1 km/h (3 Bft)
17.02.2012 04:20 4,6 C 93 % 1018,9 hPa 0,0 mm 6,4 km/h (2 Bft) W-SW 247 0 min 0 UV-I 0 W/m 17,7 km/h (3 Bft)
17.02.2012 04:30 4,6 C 93 % 1018,9 hPa 0,0 mm 6,4 km/h (2 Bft) W-SW 247 0 min 0 UV-I 0 W/m 22,5 km/h (4 Bft)
17.02.2012 04:40 4,6 C 93 % 1018,9 hPa 0,0 mm 6,4 km/h (2 Bft) W 270 0 min 0 UV-I 0 W/m 17,7 km/h (3 Bft)
17.02.2012 04:50 4,5 C 93 % 1018,9 hPa 0,0 mm 8,0 km/h (2 Bft) W-SW 247 0 min 0 UV-I 0 W/m 24,1 km/h (4 Bft)
17.02.2012 05:00 4,5 C 93 % 1018,7 hPa 0,0 mm 8,0 km/h (2 Bft) W 270 0 min 0 UV-I 0 W/m 20,9 km/h (4 Bft)
17.02.2012 05:10 4,5 C 93 % 1018,7 hPa 0,0 mm 8,0 km/h (2 Bft) W 270 0 min 0 UV-I 0 W/m 20,9 km/h (4 Bft)
17.02.2012 05:20 4,5 C 93 % 1018,8 hPa 0,0 mm 8,0 km/h (2 Bft) W-SW 247 0 min 0 UV-I 0 W/m 20,9 km/h (4 Bft)
17.02.2012 05:30 4,5 C 93 % 1018,8 hPa 0,0 mm 8,0 km/h (2 Bft) W 270 0 min 0 UV-I 0 W/m 20,9 km/h (4 Bft)
17.02.2012 05:40 4,5 C 93 % 1018,8 hPa 0,0 mm 6,4 km/h (2 Bft) W 270 0 min 0 UV-I 0 W/m 19,3 km/h (3 Bft)
17.02.2012 05:50 4,5 C 93 % 1018,7 hPa 0,0 mm 6,4 km/h (2 Bft) W-SW 247 0 min 0 UV-I 0 W/m 19,3 km/h (3 Bft)
17.02.2012 06:00 4,5 C 93 % 1018,7 hPa 0,0 mm 6,4 km/h (2 Bft) W 270 0 min 0 UV-I 0 W/m 19,3 km/h (3 Bft)
17.02.2012 06:10 4,5 C 93 % 1018,7 hPa 0,3 mm 6,4 km/h (2 Bft) W 270 0 min 0 UV-I 0 W/m 16,1 km/h (3 Bft)
17.02.2012 06:20 4,4 C 93 % 1018,6 hPa 0,0 mm 6,4 km/h (2 Bft) W-SW 247 0 min 0 UV-I 0 W/m 17,7 km/h (3 Bft)
17.02.2012 06:30 4,4 C 93 % 1018,6 hPa 0,0 mm 8,0 km/h (2 Bft) W 270 0 min 0 UV-I 0 W/m 25,7 km/h (4 Bft)
17.02.2012 06:40 4,5 C 93 % 1018,6 hPa 0,0 mm 8,0 km/h (2 Bft) W 270 0 min 0 UV-I 0 W/m 20,9 km/h (4 Bft)
17.02.2012 06:50 4,5 C 93 % 1018,5 hPa 0,3 mm 4,8 km/h (1 Bft) W-SW 247 0 min 0 UV-I 0 W/m 17,7 km/h (3 Bft)
17.02.2012 07:00 4,5 C 93 % 1018,5 hPa 0,0 mm 6,4 km/h (2 Bft) W-SW 247 0 min 0 UV-I 0 W/m 16,1 km/h (3 Bft)
17.02.2012 07:10 4,5 C 93 % 1018,6 hPa 0,0 mm 6,4 km/h (2 Bft) W 270 0 min 0 UV-I 0 W/m 16,1 km/h (3 Bft)
17.02.2012 07:20 4,5 C 93 % 1018,7 hPa 0,0 mm 6,4 km/h (2 Bft) W 270 0 min 0 UV-I 0 W/m 17,7 km/h (3 Bft)
17.02.2012 07:30 4,5 C 93 % 1018,7 hPa 0,0 mm 4,8 km/h (1 Bft) W 270 0 min 0 UV-I 0 W/m 16,1 km/h (3 Bft)
17.02.2012 07:40 4,5 C 93 % 1018,7 hPa 0,0 mm 4,8 km/h (1 Bft) W 270 0 min 0 UV-I 0 W/m 17,7 km/h (3 Bft)
17.02.2012 07:50 4,5 C 93 % 1018,8 hPa 0,0 mm 4,8 km/h (1 Bft) W 270 0 min 0 UV-I 0 W/m 14,5 km/h (3 Bft)
17.02.2012 08:00 4,5 C 93 % 1018,9 hPa 0,3 mm 3,5 km/h (1 Bft) W-SW 250 0 min 0 UV-I 0 W/m 8,0 km/h (2 Bft)
17.02.2012 08:10 4,5 C 93 % 1019,0 hPa 0,0 mm 6,4 km/h (2 Bft) SW 225 0 min 0 UV-I 0 W/m 19,3 km/h (3 Bft)
17.02.2012 08:20 4,5 C 93 % 1018,9 hPa 0,0 mm 3,2 km/h (1 Bft) W-NW 292 0 min 0 UV-I 0 W/m 9,7 km/h (2 Bft)
17.02.2012 08:30 4,5 C 93 % 1019,0 hPa 0,0 mm 4,8 km/h (1 Bft) W 270 0 min 0 UV-I 7 W/m 16,1 km/h (3 Bft)
17.02.2012 08:40 4,5 C 93 % 1019,2 hPa 0,0 mm 6,4 km/h (2 Bft) W 270 0 min 0 UV-I 12 W/m 17,7 km/h (3 Bft)
17.02.2012 08:50 4,6 C 93 % 1019,3 hPa 0,0 mm 6,4 km/h (2 Bft) W 270 0 min 0 UV-I 7 W/m 16,1 km/h (3 Bft)
17.02.2012 09:00 4,6 C 94 % 1019,4 hPa 0,0 mm 6,4 km/h (2 Bft) W-SW 247 0 min 0 UV-I 14 W/m 16,1 km/h (3 Bft)
17.02.2012 09:10 4,6 C 94 % 1019,5 hPa 0,0 mm 6,4 km/h (2 Bft) W 270 0 min 0 UV-I 23 W/m 19,3 km/h (3 Bft)
17.02.2012 09:20 4,6 C 94 % 1019,4 hPa 0,0 mm 6,4 km/h (2 Bft) W 270 0 min 0 UV-I 28 W/m 16,1 km/h (3 Bft)
17.02.2012 09:30 4,7 C 94 % 1019,5 hPa 0,0 mm 4,8 km/h (1 Bft) W 270 0 min 0 UV-I 26 W/m 14,5 km/h (3 Bft)
17.02.2012 09:40 4,7 C 94 % 1019,5 hPa 0,0 mm 3,2 km/h (1 Bft) W 270 0 min 0 UV-I 21 W/m 11,3 km/h (2 Bft)
17.02.2012 09:50 4,7 C 94 % 1019,5 hPa 0,0 mm 6,4 km/h (2 Bft) W 270 0 min 0 UV-I 19 W/m 14,5 km/h (3 Bft)
17.02.2012 10:00 4,7 C 94 % 1019,5 hPa 0,0 mm 6,4 km/h (2 Bft) W-SW 247 0 min 0 UV-I 25 W/m 17,7 km/h (3 Bft)
17.02.2012 10:10 4,7 C 94 % 1019,4 hPa 0,0 mm 6,4 km/h (2 Bft) W-SW 247 0 min 0 UV-I 30 W/m 20,9 km/h (4 Bft)
17.02.2012 10:20 4,8 C 94 % 1019,4 hPa 0,0 mm 6,4 km/h (2 Bft) W-SW 247 0 min 0 UV-I 33 W/m 17,7 km/h (3 Bft)
17.02.2012 10:30 4,8 C 94 % 1019,3 hPa 0,0 mm 8,0 km/h (2 Bft) W 270 0 min 0 UV-I 30 W/m 22,5 km/h (4 Bft)
17.02.2012 10:40 4,8 C 94 % 1019,2 hPa 0,0 mm 8,0 km/h (2 Bft) W-SW 247 0 min 0 UV-I 72 W/m 22,5 km/h (4 Bft)
17.02.2012 10:50 4,9 C 94 % 1019,2 hPa 0,0 mm 8,0 km/h (2 Bft) W 270 0 min 0 UV-I 91 W/m 22,5 km/h (4 Bft)
17.02.2012 11:00 5,0 C 94 % 1019,4 hPa 0,0 mm 8,0 km/h (2 Bft) W 270 0 min 0 UV-I 91 W/m 17,7 km/h (3 Bft)
17.02.2012 11:10 5,1 C 94 % 1019,5 hPa 0,0 mm 9,7 km/h (2 Bft) W-SW 247 0 min 0 UV-I 77 W/m 20,9 km/h (4 Bft)
17.02.2012 11:20 5,1 C 94 % 1019,6 hPa 0,0 mm 8,0 km/h (2 Bft) W 270 0 min 0 UV-I 69 W/m 22,5 km/h (4 Bft)
17.02.2012 11:30 5,1 C 94 % 1019,6 hPa 0,0 mm 6,4 km/h (2 Bft) W-SW 247 0 min 0 UV-I 42 W/m 17,7 km/h (3 Bft)
17.02.2012 11:40 5,1 C 94 % 1019,7 hPa 0,0 mm 9,7 km/h (2 Bft) SW 225 0 min 0 UV-I 39 W/m 22,5 km/h (4 Bft)
17.02.2012 11:50 5,1 C 94 % 1019,8 hPa 0,0 mm 9,7 km/h (2 Bft) W-SW 247 0 min 0 UV-I 60 W/m 20,9 km/h (4 Bft)
17.02.2012 12:00 5,1 C 94 % 1019,9 hPa 0,0 mm 6,4 km/h (2 Bft) W 270 0 min 0 UV-I 30 W/m 17,7 km/h (3 Bft)
17.02.2012 12:10 5,1 C 94 % 1020,0 hPa 0,0 mm 8,0 km/h (2 Bft) W 270 0 min 0 UV-I 26 W/m 20,9 km/h (4 Bft)
17.02.2012 12:20 5,1 C 94 % 1020,0 hPa 0,0 mm 6,4 km/h (2 Bft) W 270 0 min 0 UV-I 35 W/m 17,7 km/h (3 Bft)
17.02.2012 12:30 5,1 C 94 % 1019,9 hPa 0,0 mm 8,0 km/h (2 Bft) W 270 0 min 0 UV-I 60 W/m 20,9 km/h (4 Bft)
17.02.2012 12:40 5,1 C 94 % 1019,9 hPa 0,3 mm 6,4 km/h (2 Bft) W-SW 247 0 min 0 UV-I 51 W/m 16,1 km/h (3 Bft)
17.02.2012 12:50 5,1 C 94 % 1019,8 hPa 0,0 mm 4,8 km/h (1 Bft) W 270 0 min 1 UV-I 116 W/m 16,1 km/h (3 Bft)
17.02.2012 13:00 5,3 C 94 % 1019,7 hPa 0,0 mm 6,4 km/h (2 Bft) W-SW 247 0 min 1 UV-I 199 W/m 17,7 km/h (3 Bft)
17.02.2012 13:10 5,6 C 94 % 1019,8 hPa 0,0 mm 8,0 km/h (2 Bft) W-SW 247 10 min 1 UV-I 315 W/m 19,3 km/h (3 Bft)
17.02.2012 13:20 5,9 C 94 % 1019,7 hPa 0,0 mm 8,0 km/h (2 Bft) W-SW 247 10 min 1 UV-I 431 W/m 20,9 km/h (4 Bft)
17.02.2012 13:30 6,1 C 94 % 1019,7 hPa 0,0 mm 6,4 km/h (2 Bft) W 270 10 min 1 UV-I 313 W/m 19,3 km/h (3 Bft)
17.02.2012 13:40 6,3 C 94 % 1019,6 hPa 0,0 mm 6,4 km/h (2 Bft) W 270 10 min 1 UV-I 443 W/m 19,3 km/h (3 Bft)
17.02.2012 13:50 6,6 C 93 % 1019,7 hPa 0,0 mm 8,0 km/h (2 Bft) W 270 10 min 1 UV-I 392 W/m 24,1 km/h (4 Bft)
17.02.2012 14:00 6,6 C 92 % 1019,7 hPa 0,0 mm 6,4 km/h (2 Bft) W 270 0 min 1 UV-I 137 W/m 20,9 km/h (4 Bft)
17.02.2012 14:10 6,4 C 91 % 1019,8 hPa 0,0 mm 8,0 km/h (2 Bft) W 270 0 min 0 UV-I 79 W/m 22,5 km/h (4 Bft)
17.02.2012 14:20 6,3 C 90 % 1019,6 hPa 0,0 mm 4,8 km/h (1 Bft) W-SW 247 0 min 1 UV-I 88 W/m 16,1 km/h (3 Bft)
17.02.2012 14:30 6,4 C 89 % 1019,6 hPa 0,0 mm 6,4 km/h (2 Bft) W 270 0 min 1 UV-I 128 W/m 16,1 km/h (3 Bft)
17.02.2012 14:40 6,5 C 89 % 1019,5 hPa 0,0 mm 4,8 km/h (1 Bft) W-SW 247 0 min 1 UV-I 171 W/m 22,5 km/h (4 Bft)
17.02.2012 14:50 6,6 C 88 % 1019,5 hPa 0,0 mm 4,8 km/h (1 Bft) W 270 0 min 1 UV-I 128 W/m 14,5 km/h (3 Bft)
17.02.2012 15:00 6,7 C 88 % 1019,5 hPa 0,0 mm 6,4 km/h (2 Bft) W-SW 247 0 min 1 UV-I 98 W/m 19,3 km/h (3 Bft)
17.02.2012 15:10 6,7 C 88 % 1019,3 hPa 0,0 mm 6,4 km/h (2 Bft) W-SW 247 0 min 1 UV-I 142 W/m 17,7 km/h (3 Bft)
17.02.2012 15:20 6,7 C 88 % 1019,4 hPa 0,0 mm 6,4 km/h (2 Bft) W-SW 247 0 min 1 UV-I 125 W/m 20,9 km/h (4 Bft)
17.02.2012 15:30 6,7 C 88 % 1019,4 hPa 0,0 mm 6,4 km/h (2 Bft) W-SW 247 0 min 0 UV-I 70 W/m 16,1 km/h (3 Bft)
17.02.2012 15:40 6,7 C 88 % 1019,3 hPa 0,0 mm 6,4 km/h (2 Bft) SW 225 0 min 0 UV-I 49 W/m 19,3 km/h (3 Bft)
17.02.2012 15:50 6,6 C 88 % 1019,3 hPa 0,0 mm 4,8 km/h (1 Bft) W-NW 292 0 min 0 UV-I 32 W/m 14,5 km/h (3 Bft)
17.02.2012 16:00 6,5 C 88 % 1019,3 hPa 0,0 mm 5,1 km/h (1 Bft) W-SW 252 0 min 0 UV-I 25 W/m 11,3 km/h (2 Bft)
17.02.2012 16:10 6,5 C 88 % 1019,3 hPa 0,0 mm 6,4 km/h (2 Bft) W-SW 247 0 min 0 UV-I 21 W/m 17,7 km/h (3 Bft)
17.02.2012 16:20 6,4 C 88 % 1019,3 hPa 0,0 mm 6,4 km/h (2 Bft) W-SW 247 0 min 0 UV-I 18 W/m 14,5 km/h (3 Bft)
17.02.2012 16:30 6,3 C 88 % 1019,3 hPa 0,0 mm 4,8 km/h (1 Bft) W-SW 247 0 min 0 UV-I 18 W/m 11,3 km/h (2 Bft)
17.02.2012 16:40 6,2 C 88 % 1019,3 hPa 0,0 mm 3,2 km/h (1 Bft) W-SW 247 0 min 0 UV-I 12 W/m 12,9 km/h (3 Bft)
17.02.2012 16:50 6,2 C 88 % 1019,4 hPa 0,0 mm 3,2 km/h (1 Bft) W-SW 247 0 min 0 UV-I 11 W/m 9,7 km/h (2 Bft)
17.02.2012 17:00 6,1 C 89 % 1019,4 hPa 0,0 mm 4,8 km/h (1 Bft) W-SW 247 0 min 0 UV-I 9 W/m 11,3 km/h (2 Bft)
17.02.2012 17:10 6,1 C 89 % 1019,4 hPa 0,0 mm 6,4 km/h (2 Bft) W-SW 247 0 min 0 UV-I 5 W/m 17,7 km/h (3 Bft)
17.02.2012 17:20 5,9 C 89 % 1019,3 hPa 0,0 mm 4,8 km/h (1 Bft) W-SW 247 0 min 0 UV-I 5 W/m 16,1 km/h (3 Bft)
17.02.2012 17:30 5,9 C 89 % 1019,4 hPa 0,0 mm 3,2 km/h (1 Bft) W-SW 247 0 min 0 UV-I 0 W/m 16,1 km/h (3 Bft)
17.02.2012 17:40 5,8 C 89 % 1019,4 hPa 0,0 mm 6,4 km/h (2 Bft) W-SW 247 0 min 0 UV-I 0 W/m 16,1 km/h (3 Bft)
17.02.2012 17:50 5,8 C 89 % 1019,5 hPa 0,0 mm 4,8 km/h (1 Bft) W-SW 247 0 min 0 UV-I 0 W/m 16,1 km/h (3 Bft)
17.02.2012 18:00 5,7 C 89 % 1019,5 hPa 0,0 mm 6,4 km/h (2 Bft) W-SW 247 0 min 0 UV-I 0 W/m 16,1 km/h (3 Bft)
17.02.2012 18:10 5,7 C 89 % 1019,7 hPa 0,0 mm 6,4 km/h (2 Bft) SW 225 0 min 0 UV-I 0 W/m 17,7 km/h (3 Bft)
17.02.2012 18:20 5,7 C 90 % 1019,6 hPa 0,0 mm 4,8 km/h (1 Bft) W-SW 247 0 min 0 UV-I 0 W/m 16,1 km/h (3 Bft)
17.02.2012 18:30 5,6 C 90 % 1019,7 hPa 0,0 mm 4,8 km/h (1 Bft) W-SW 247 0 min 0 UV-I 0 W/m 17,7 km/h (3 Bft)
17.02.2012 18:40 5,6 C 90 % 1019,8 hPa 0,0 mm 4,8 km/h (1 Bft) W-SW 247 0 min 0 UV-I 0 W/m 14,5 km/h (3 Bft)
17.02.2012 18:50 5,6 C 90 % 1019,8 hPa 0,0 mm 6,4 km/h (2 Bft) W-SW 247 0 min 0 UV-I 0 W/m 17,7 km/h (3 Bft)
17.02.2012 19:00 5,5 C 90 % 1019,8 hPa 0,0 mm 6,4 km/h (2 Bft) W-SW 247 0 min 0 UV-I 0 W/m 16,1 km/h (3 Bft)
17.02.2012 19:10 5,5 C 90 % 1019,8 hPa 0,0 mm 4,8 km/h (1 Bft) W 270 0 min 0 UV-I 0 W/m 14,5 km/h (3 Bft)
17.02.2012 19:20 5,4 C 90 % 1019,9 hPa 0,0 mm 4,8 km/h (1 Bft) W 270 0 min 0 UV-I 0 W/m 16,1 km/h (3 Bft)
17.02.2012 19:30 5,4 C 90 % 1019,9 hPa 0,0 mm 3,2 km/h (1 Bft) W 270 0 min 0 UV-I 0 W/m 16,1 km/h (3 Bft)
17.02.2012 19:40 5,4 C 90 % 1019,8 hPa 0,0 mm 3,2 km/h (1 Bft) W-SW 247 0 min 0 UV-I 0 W/m 11,3 km/h (2 Bft)
17.02.2012 19:50 5,3 C 90 % 1019,8 hPa 0,0 mm 3,2 km/h (1 Bft) W 270 0 min 0 UV-I 0 W/m 8,0 km/h (2 Bft)
17.02.2012 20:00 5,3 C 90 % 1019,8 hPa 0,0 mm 4,8 km/h (1 Bft) W-SW 247 0 min 0 UV-I 0 W/m 12,9 km/h (3 Bft)
17.02.2012 20:10 5,3 C 90 % 1020,0 hPa 0,0 mm 3,2 km/h (1 Bft) W-SW 247 0 min 0 UV-I 0 W/m 11,3 km/h (2 Bft)
17.02.2012 20:20 5,3 C 90 % 1020,0 hPa 0,0 mm 4,8 km/h (1 Bft) W-NW 292 0 min 0 UV-I 0 W/m 12,9 km/h (3 Bft)
17.02.2012 20:30 5,2 C 90 % 1020,0 hPa 0,0 mm 3,2 km/h (1 Bft) W-SW 247 0 min 0 UV-I 0 W/m 9,7 km/h (2 Bft)
17.02.2012 20:40 5,2 C 91 % 1019,9 hPa 0,0 mm 3,2 km/h (1 Bft) W-SW 247 0 min 0 UV-I 0 W/m 9,7 km/h (2 Bft)
17.02.2012 20:50 5,2 C 90 % 1019,9 hPa 0,0 mm 1,6 km/h (1 Bft) W 270 0 min 0 UV-I 0 W/m 6,4 km/h (2 Bft)
17.02.2012 21:00 5,1 C 90 % 1019,9 hPa 0,0 mm 1,6 km/h (1 Bft) W-SW 247 0 min 0 UV-I 0 W/m 6,4 km/h (2 Bft)
17.02.2012 21:10 5,0 C 90 % 1019,9 hPa 0,0 mm 1,6 km/h (1 Bft) W-SW 247 0 min 0 UV-I 0 W/m 8,0 km/h (2 Bft)
17.02.2012 21:20 4,9 C 90 % 1019,9 hPa 0,0 mm 1,6 km/h (1 Bft) W-SW 247 0 min 0 UV-I 0 W/m 6,4 km/h (2 Bft)
17.02.2012 21:30 4,8 C 90 % 1020,0 hPa 0,0 mm 1,6 km/h (1 Bft) SW 225 0 min 0 UV-I 0 W/m 8,0 km/h (2 Bft)
17.02.2012 21:40 4,7 C 90 % 1020,0 hPa 0,0 mm 1,6 km/h (1 Bft) W-SW 247 0 min 0 UV-I 0 W/m 6,4 km/h (2 Bft)
17.02.2012 21:50 4,7 C 90 % 1019,9 hPa 0,0 mm 1,6 km/h (1 Bft) W-SW 247 0 min 0 UV-I 0 W/m 6,4 km/h (2 Bft)
17.02.2012 22:00 4,6 C 90 % 1019,8 hPa 0,0 mm 1,6 km/h (1 Bft) W-SW 247 0 min 0 UV-I 0 W/m 8,0 km/h (2 Bft)
17.02.2012 22:10 4,6 C 91 % 1019,8 hPa 0,0 mm 1,6 km/h (1 Bft) W 270 0 min 0 UV-I 0 W/m 8,0 km/h (2 Bft)
17.02.2012 22:20 4,6 C 91 % 1019,6 hPa 0,0 mm 1,6 km/h (1 Bft) SW 225 0 min 0 UV-I 0 W/m 6,4 km/h (2 Bft)
17.02.2012 22:30 4,5 C 91 % 1019,6 hPa 0,0 mm 1,6 km/h (1 Bft) W-SW 247 0 min 0 UV-I 0 W/m 9,7 km/h (2 Bft)
17.02.2012 22:40 4,5 C 91 % 1019,6 hPa 0,0 mm 1,6 km/h (1 Bft) W-SW 247 0 min 0 UV-I 0 W/m 6,4 km/h (2 Bft)
17.02.2012 22:50 4,4 C 90 % 1019,5 hPa 0,0 mm 1,6 km/h (1 Bft) W-SW 247 0 min 0 UV-I 0 W/m 4,8 km/h (1 Bft)
17.02.2012 23:00 4,3 C 90 % 1019,3 hPa 0,0 mm 0,0 km/h (0 Bft) W-SW 247 0 min 0 UV-I 0 W/m 4,8 km/h (1 Bft)
17.02.2012 23:10 4,2 C 91 % 1019,3 hPa 0,0 mm 0,0 km/h (0 Bft) W-SW 247 0 min 0 UV-I 0 W/m 3,2 km/h (1 Bft)
17.02.2012 23:20 4,2 C 91 % 1019,2 hPa 0,0 mm 0,0 km/h (0 Bft) N 0 0 min 0 UV-I 0 W/m 0,0 km/h (0 Bft)
17.02.2012 23:30 4,1 C 90 % 1019,2 hPa 0,0 mm 0,0 km/h (0 Bft) N 0 0 min 0 UV-I 0 W/m 0,0 km/h (0 Bft)
17.02.2012 23:40 3,9 C 90 % 1019,1 hPa 0,0 mm 0,0 km/h (0 Bft) N 0 0 min 0 UV-I 0 W/m 0,0 km/h (0 Bft)
17.02.2012 23:50 3,8 C 90 % 1019,2 hPa 0,0 mm 0,0 km/h (0 Bft) N 0 0 min 0 UV-I 0 W/m 0,0 km/h (0 Bft)
_ Min-Zeit 23:50 14:50 06:50 - 23:00 - - - - - 23:20
Minimum _ 3,8 C 88 % 1018,5 hPa - 0,0 km/h (0 Bft) - - - - - 0,0 km/h (0 Bft)
_ Max-Zeit 14:50 09:00 00:00 03:00 02:00 - - 13:10 13:10 13:40 06:30
Maximum _ 6,7 C 94 % 1020,8 hPa 0,3 mm 9,7 km/h
W-SW (2 Bft)
- - 10 min 1 UV-I 443 W/m 25,7 km/h
W (4 Bft)
Durchschnitt _ 5,1 C 92 % 1019,5 hPa #1,5 mm 5,6 km/h (1 Bft) W-SW - #50 min. 1 UV-I 85 W/m 16,0 km/h (3 Bft)